sensor_id;sensor_type;location;lat;lon;timestamp;pressure;altitude;pressure_sealevel;temperature;humidity
75359;BME280;64046;51.978;5.934;2023-09-18T00:00:08;100569.47;;;24.23;100.00
75359;BME280;64046;51.978;5.934;2023-09-18T00:02:38;100565.63;;;24.17;100.00
75359;BME280;64046;51.978;5.934;2023-09-18T00:05:09;100559.72;;;24.14;100.00
75359;BME280;64046;51.978;5.934;2023-09-18T00:07:42;100560.88;;;24.11;100.00
75359;BME280;64046;51.978;5.934;2023-09-18T00:10:14;100547.72;;;24.26;100.00
75359;BME280;64046;51.978;5.934;2023-09-18T00:12:46;100549.91;;;24.31;100.00
75359;BME280;64046;51.978;5.934;2023-09-18T00:15:23;100540.16;;;24.13;100.00
75359;BME280;64046;51.978;5.934;2023-09-18T00:17:58;100539.88;;;24.33;100.00
75359;BME280;64046;51.978;5.934;2023-09-18T00:20:30;100524.41;;;24.02;100.00
75359;BME280;64046;51.978;5.934;2023-09-18T00:23:01;100509.84;;;23.96;100.00
75359;BME280;64046;51.978;5.934;2023-09-18T00:25:34;100503.81;;;23.94;100.00
75359;BME280;64046;51.978;5.934;2023-09-18T00:28:06;100504.84;;;24.10;100.00
75359;BME280;64046;51.978;5.934;2023-09-18T00:30:44;100501.53;;;24.16;100.00
75359;BME280;64046;51.978;5.934;2023-09-18T00:33:20;100487.94;;;23.93;100.00
75359;BME280;64046;51.978;5.934;2023-09-18T00:35:53;100489.63;;;24.02;100.00
75359;BME280;64046;51.978;5.934;2023-09-18T00:38:26;100492.31;;;24.10;100.00
75359;BME280;64046;51.978;5.934;2023-09-18T00:43:40;100491.16;;;24.13;100.00
75359;BME280;64046;51.978;5.934;2023-09-18T00:46:13;100497.44;;;23.95;100.00
75359;BME280;64046;51.978;5.934;2023-09-18T00:48:44;100483.91;;;23.97;100.00
75359;BME280;64046;51.978;5.934;2023-09-18T00:51:16;100472.72;;;24.01;100.00
75359;BME280;64046;51.978;5.934;2023-09-18T00:53:51;100464.69;;;24.10;100.00
75359;BME280;64046;51.978;5.934;2023-09-18T00:56:25;100458.50;;;24.09;100.00
75359;BME280;64046;51.978;5.934;2023-09-18T00:59:02;100451.31;;;24.10;100.00
75359;BME280;64046;51.978;5.934;2023-09-18T01:01:34;100443.59;;;23.90;100.00
75359;BME280;64046;51.978;5.934;2023-09-18T01:04:11;100433.22;;;23.87;100.00
75359;BME280;64046;51.978;5.934;2023-09-18T01:06:44;100437.56;;;23.88;100.00
75359;BME280;64046;51.978;5.934;2023-09-18T01:09:16;100431.72;;;24.01;100.00
75359;BME280;64046;51.978;5.934;2023-09-18T01:11:52;100434.06;;;24.04;100.00
75359;BME280;64046;51.978;5.934;2023-09-18T01:14:31;100427.38;;;24.08;100.00
75359;BME280;64046;51.978;5.934;2023-09-18T01:17:06;100420.81;;;23.86;100.00
75359;BME280;64046;51.978;5.934;2023-09-18T01:19:52;100422.38;;;24.13;100.00
75359;BME280;64046;51.978;5.934;2023-09-18T01:22:23;100416.34;;;24.03;100.00
75359;BME280;64046;51.978;5.934;2023-09-18T01:25:00;100411.00;;;24.03;100.00
75359;BME280;64046;51.978;5.934;2023-09-18T01:27:31;100408.13;;;23.88;100.00
75359;BME280;64046;51.978;5.934;2023-09-18T01:30:03;100395.94;;;24.02;100.00
75359;BME280;64046;51.978;5.934;2023-09-18T01:32:36;100387.38;;;23.98;100.00
75359;BME280;64046;51.978;5.934;2023-09-18T01:35:08;100375.53;;;24.01;100.00
75359;BME280;64046;51.978;5.934;2023-09-18T01:37:41;100378.34;;;23.91;100.00
75359;BME280;64046;51.978;5.934;2023-09-18T01:40:16;100375.69;;;23.99;100.00
75359;BME280;64046;51.978;5.934;2023-09-18T01:42:47;100370.47;;;23.81;100.00
75359;BME280;64046;51.978;5.934;2023-09-18T01:45:16;100359.78;;;23.81;100.00
75359;BME280;64046;51.978;5.934;2023-09-18T01:47:47;100348.56;;;23.86;100.00
75359;BME280;64046;51.978;5.934;2023-09-18T01:50:36;100350.94;;;23.97;100.00
75359;BME280;64046;51.978;5.934;2023-09-18T01:53:10;100353.22;;;23.84;100.00
75359;BME280;64046;51.978;5.934;2023-09-18T01:55:45;100341.88;;;23.98;100.00
75359;BME280;64046;51.978;5.934;2023-09-18T01:58:19;100349.72;;;23.83;100.00
75359;BME280;64046;51.978;5.934;2023-09-18T02:00:53;100349.78;;;24.00;100.00
75359;BME280;64046;51.978;5.934;2023-09-18T02:03:29;100353.94;;;24.02;100.00
75359;BME280;64046;51.978;5.934;2023-09-18T02:05:59;100358.75;;;23.82;100.00
75359;BME280;64046;51.978;5.934;2023-09-18T02:08:35;100360.97;;;24.04;100.00
75359;BME280;64046;51.978;5.934;2023-09-18T02:11:08;100360.16;;;24.03;100.00
75359;BME280;64046;51.978;5.934;2023-09-18T02:13:38;100354.59;;;23.88;100.00
75359;BME280;64046;51.978;5.934;2023-09-18T02:16:10;100344.59;;;23.90;100.00
75359;BME280;64046;51.978;5.934;2023-09-18T02:18:42;100348.09;;;23.91;100.00
75359;BME280;64046;51.978;5.934;2023-09-18T02:21:22;100346.44;;;24.14;100.00
75359;BME280;64046;51.978;5.934;2023-09-18T02:23:54;100345.59;;;24.06;100.00
75359;BME280;64046;51.978;5.934;2023-09-18T02:26:26;100346.25;;;24.08;100.00
75359;BME280;64046;51.978;5.934;2023-09-18T02:28:59;100348.94;;;24.08;100.00
75359;BME280;64046;51.978;5.934;2023-09-18T02:31:35;100343.41;;;23.93;100.00
75359;BME280;64046;51.978;5.934;2023-09-18T02:34:05;100332.56;;;23.94;100.00
75359;BME280;64046;51.978;5.934;2023-09-18T02:36:40;100335.19;;;24.02;100.00
75359;BME280;64046;51.978;5.934;2023-09-18T02:39:10;100319.34;;;23.93;100.00
75359;BME280;64046;51.978;5.934;2023-09-18T02:41:43;100314.63;;;24.11;100.00
75359;BME280;64046;51.978;5.934;2023-09-18T02:44:14;100310.44;;;23.92;100.00
75359;BME280;64046;51.978;5.934;2023-09-18T02:46:44;100293.72;;;23.98;100.00
75359;BME280;64046;51.978;5.934;2023-09-18T02:49:13;100291.06;;;23.90;100.00
75359;BME280;64046;51.978;5.934;2023-09-18T02:51:46;100282.19;;;24.06;100.00
75359;BME280;64046;51.978;5.934;2023-09-18T02:54:20;100274.66;;;24.01;100.00
75359;BME280;64046;51.978;5.934;2023-09-18T02:56:54;100270.66;;;24.06;100.00
75359;BME280;64046;51.978;5.934;2023-09-18T02:59:25;100267.16;;;23.89;100.00
75359;BME280;64046;51.978;5.934;2023-09-18T03:01:55;100256.28;;;23.90;100.00
75359;BME280;64046;51.978;5.934;2023-09-18T03:04:24;100258.28;;;23.88;100.00
75359;BME280;64046;51.978;5.934;2023-09-18T03:06:55;100246.88;;;23.86;100.00
75359;BME280;64046;51.978;5.934;2023-09-18T03:09:27;100226.50;;;23.93;100.00
75359;BME280;64046;51.978;5.934;2023-09-18T03:11:59;100208.75;;;24.00;100.00
75359;BME280;64046;51.978;5.934;2023-09-18T03:14:29;100197.75;;;23.87;100.00
75359;BME280;64046;51.978;5.934;2023-09-18T03:17:03;100200.22;;;23.80;100.00
75359;BME280;64046;51.978;5.934;2023-09-18T03:19:38;100198.06;;;24.00;100.00
75359;BME280;64046;51.978;5.934;2023-09-18T03:22:17;100194.84;;;24.05;100.00
75359;BME280;64046;51.978;5.934;2023-09-18T03:24:47;100199.88;;;23.83;100.00
75359;BME280;64046;51.978;5.934;2023-09-18T03:27:28;100174.13;;;23.99;100.00
75359;BME280;64046;51.978;5.934;2023-09-18T03:30:00;100179.66;;;23.97;100.00
75359;BME280;64046;51.978;5.934;2023-09-18T03:32:34;100177.81;;;23.98;100.00
75359;BME280;64046;51.978;5.934;2023-09-18T03:35:05;100172.09;;;24.01;100.00
75359;BME280;64046;51.978;5.934;2023-09-18T03:37:38;100176.34;;;23.87;100.00
75359;BME280;64046;51.978;5.934;2023-09-18T03:40:10;100168.09;;;24.05;100.00
75359;BME280;64046;51.978;5.934;2023-09-18T03:42:47;100162.09;;;24.03;100.00
75359;BME280;64046;51.978;5.934;2023-09-18T03:45:19;100164.44;;;23.90;100.00
75359;BME280;64046;51.978;5.934;2023-09-18T03:47:50;100167.81;;;23.92;100.00
75359;BME280;64046;51.978;5.934;2023-09-18T03:50:23;100168.28;;;23.95;100.00
75359;BME280;64046;51.978;5.934;2023-09-18T03:52:56;100175.41;;;24.11;100.00
75359;BME280;64046;51.978;5.934;2023-09-18T03:55:29;100179.31;;;24.00;100.00
75359;BME280;64046;51.978;5.934;2023-09-18T03:58:04;100207.84;;;24.25;100.00
75359;BME280;64046;51.978;5.934;2023-09-18T04:00:33;100201.06;;;24.06;100.00
75359;BME280;64046;51.978;5.934;2023-09-18T04:03:03;100201.00;;;24.14;100.00
75359;BME280;64046;51.978;5.934;2023-09-18T04:05:40;100203.22;;;24.10;100.00
75359;BME280;64046;51.978;5.934;2023-09-18T04:08:16;100203.03;;;24.12;100.00
75359;BME280;64046;51.978;5.934;2023-09-18T04:10:47;100186.13;;;24.11;100.00
75359;BME280;64046;51.978;5.934;2023-09-18T04:13:27;100183.41;;;24.28;100.00
75359;BME280;64046;51.978;5.934;2023-09-18T04:16:00;100171.28;;;24.09;100.00
75359;BME280;64046;51.978;5.934;2023-09-18T04:18:34;100176.97;;;24.06;100.00
75359;BME280;64046;51.978;5.934;2023-09-18T04:21:05;100176.97;;;24.06;100.00
75359;BME280;64046;51.978;5.934;2023-09-18T04:23:38;100186.47;;;24.08;100.00
75359;BME280;64046;51.978;5.934;2023-09-18T04:26:16;100187.81;;;24.12;100.00
75359;BME280;64046;51.978;5.934;2023-09-18T04:28:50;100174.72;;;24.26;100.00
75359;BME280;64046;51.978;5.934;2023-09-18T04:31:22;100160.66;;;24.24;100.00
75359;BME280;64046;51.978;5.934;2023-09-18T04:33:57;100154.84;;;24.12;100.00
75359;BME280;64046;51.978;5.934;2023-09-18T04:36:30;100142.47;;;24.11;100.00
75359;BME280;64046;51.978;5.934;2023-09-18T04:39:03;100117.50;;;24.18;100.00
75359;BME280;64046;51.978;5.934;2023-09-18T04:41:42;100112.13;;;24.27;100.00
75359;BME280;64046;51.978;5.934;2023-09-18T04:44:15;100130.50;;;24.30;100.00
75359;BME280;64046;51.978;5.934;2023-09-18T04:46:46;100124.91;;;24.08;100.00
75359;BME280;64046;51.978;5.934;2023-09-18T04:49:16;100141.31;;;24.05;100.00
75359;BME280;64046;51.978;5.934;2023-09-18T04:51:50;100138.25;;;24.25;100.00
75359;BME280;64046;51.978;5.934;2023-09-18T04:54:24;100134.41;;;24.19;100.00
75359;BME280;64046;51.978;5.934;2023-09-18T04:56:55;100141.31;;;24.05;100.00
75359;BME280;64046;51.978;5.934;2023-09-18T04:59:29;100140.38;;;24.29;100.00
75359;BME280;64046;51.978;5.934;2023-09-18T05:01:59;100125.41;;;24.12;100.00
75359;BME280;64046;51.978;5.934;2023-09-18T05:04:31;100138.28;;;24.16;100.00
75359;BME280;64046;51.978;5.934;2023-09-18T05:07:04;100136.91;;;24.21;100.00
75359;BME280;64046;51.978;5.934;2023-09-18T05:09:42;100139.25;;;24.24;100.00
75359;BME280;64046;51.978;5.934;2023-09-18T05:12:14;100137.16;;;24.42;100.00
75359;BME280;64046;51.978;5.934;2023-09-18T05:14:46;100149.00;;;24.48;100.00
75359;BME280;64046;51.978;5.934;2023-09-18T05:17:17;100146.19;;;24.41;100.00
75359;BME280;64046;51.978;5.934;2023-09-18T05:19:50;100136.94;;;24.52;100.00
75359;BME280;64046;51.978;5.934;2023-09-18T05:22:27;100132.69;;;24.34;100.00
75359;BME280;64046;51.978;5.934;2023-09-18T05:24:57;100140.72;;;24.34;100.00
75359;BME280;64046;51.978;5.934;2023-09-18T05:27:29;100134.91;;;24.54;100.00
75359;BME280;64046;51.978;5.934;2023-09-18T05:30:05;100123.19;;;24.55;100.00
75359;BME280;64046;51.978;5.934;2023-09-18T05:32:41;100120.72;;;24.45;100.00
75359;BME280;64046;51.978;5.934;2023-09-18T05:35:11;100107.72;;;24.34;100.00
75359;BME280;64046;51.978;5.934;2023-09-18T05:37:44;100114.00;;;24.49;100.00
75359;BME280;64046;51.978;5.934;2023-09-18T05:40:17;100109.22;;;24.36;100.00
75359;BME280;64046;51.978;5.934;2023-09-18T05:42:49;100117.78;;;24.32;100.00
75359;BME280;64046;51.978;5.934;2023-09-18T05:45:28;100125.72;;;24.48;100.00
75359;BME280;64046;51.978;5.934;2023-09-18T05:48:00;100124.16;;;24.31;100.00
75359;BME280;64046;51.978;5.934;2023-09-18T05:50:31;100120.47;;;24.32;100.00
75359;BME280;64046;51.978;5.934;2023-09-18T05:53:03;100112.69;;;24.45;100.00
75359;BME280;64046;51.978;5.934;2023-09-18T05:55:34;100129.47;;;24.39;100.00
75359;BME280;64046;51.978;5.934;2023-09-18T05:58:03;100136.34;;;24.33;100.00
75359;BME280;64046;51.978;5.934;2023-09-18T06:00:36;100132.94;;;24.48;100.00
75359;BME280;64046;51.978;5.934;2023-09-18T06:03:07;100142.72;;;24.32;100.00
75359;BME280;64046;51.978;5.934;2023-09-18T06:05:39;100165.47;;;24.36;100.00
75359;BME280;64046;51.978;5.934;2023-09-18T06:08:11;100170.41;;;24.56;100.00
75359;BME280;64046;51.978;5.934;2023-09-18T06:10:47;100168.81;;;24.39;100.00
75359;BME280;64046;51.978;5.934;2023-09-18T06:13:17;100189.38;;;24.38;100.00
75359;BME280;64046;51.978;5.934;2023-09-18T06:15:52;100206.56;;;24.52;100.00
75359;BME280;64046;51.978;5.934;2023-09-18T06:18:22;100192.59;;;24.33;100.00
75359;BME280;64046;51.978;5.934;2023-09-18T06:20:55;100192.31;;;24.51;100.00
75359;BME280;64046;51.978;5.934;2023-09-18T06:23:32;100187.72;;;24.37;100.00
75359;BME280;64046;51.978;5.934;2023-09-18T06:26:02;100183.69;;;24.41;100.00
75359;BME280;64046;51.978;5.934;2023-09-18T06:28:43;100188.69;;;24.44;100.00
75359;BME280;64046;51.978;5.934;2023-09-18T06:31:18;100190.78;;;24.65;100.00
75359;BME280;64046;51.978;5.934;2023-09-18T06:33:55;100202.28;;;24.74;100.00
75359;BME280;64046;51.978;5.934;2023-09-18T06:36:27;100209.69;;;24.72;100.00
75359;BME280;64046;51.978;5.934;2023-09-18T06:39:00;100209.97;;;24.77;100.00
75359;BME280;64046;51.978;5.934;2023-09-18T06:41:30;100196.34;;;24.64;100.00
75359;BME280;64046;51.978;5.934;2023-09-18T06:44:05;100203.41;;;24.88;100.00
75359;BME280;64046;51.978;5.934;2023-09-18T06:46:40;100208.44;;;24.83;100.00
75359;BME280;64046;51.978;5.934;2023-09-18T06:49:11;100199.84;;;24.64;100.00
75359;BME280;64046;51.978;5.934;2023-09-18T06:51:45;100203.53;;;24.63;100.00
75359;BME280;64046;51.978;5.934;2023-09-18T06:54:16;100191.97;;;24.63;100.00
75359;BME280;64046;51.978;5.934;2023-09-18T06:56:48;100195.69;;;24.62;100.00
75359;BME280;64046;51.978;5.934;2023-09-18T06:59:21;100199.75;;;24.81;100.00
75359;BME280;64046;51.978;5.934;2023-09-18T07:01:56;100202.09;;;24.84;100.00
75359;BME280;64046;51.978;5.934;2023-09-18T07:04:36;100208.03;;;24.63;100.00
75359;BME280;64046;51.978;5.934;2023-09-18T07:07:11;100205.03;;;24.66;100.00
75359;BME280;64046;51.978;5.934;2023-09-18T07:09:41;100206.19;;;24.72;100.00
75359;BME280;64046;51.978;5.934;2023-09-18T07:12:13;100217.22;;;24.68;100.00
75359;BME280;64046;51.978;5.934;2023-09-18T07:14:46;100213.88;;;24.75;100.00
75359;BME280;64046;51.978;5.934;2023-09-18T07:17:24;100207.34;;;25.00;100.00
75359;BME280;64046;51.978;5.934;2023-09-18T07:19:59;100204.47;;;24.79;100.00
75359;BME280;64046;51.978;5.934;2023-09-18T07:22:36;100206.47;;;24.77;100.00
75359;BME280;64046;51.978;5.934;2023-09-18T07:25:11;100209.25;;;24.92;100.00
75359;BME280;64046;51.978;5.934;2023-09-18T07:27:41;100191.06;;;24.79;100.00
75359;BME280;64046;51.978;5.934;2023-09-18T07:30:14;100192.28;;;24.99;100.00
75359;BME280;64046;51.978;5.934;2023-09-18T07:32:51;100194.78;;;25.01;100.00
75359;BME280;64046;51.978;5.934;2023-09-18T07:35:22;100216.97;;;24.86;100.00
75359;BME280;64046;51.978;5.934;2023-09-18T07:37:53;100200.13;;;25.01;100.00
75359;BME280;64046;51.978;5.934;2023-09-18T07:40:29;100198.09;;;25.03;100.00
75359;BME280;64046;51.978;5.934;2023-09-18T07:42:59;100200.91;;;24.86;100.00
75359;BME280;64046;51.978;5.934;2023-09-18T07:45:31;100215.97;;;24.87;100.00
75359;BME280;64046;51.978;5.934;2023-09-18T07:48:07;100224.84;;;25.11;100.00
75359;BME280;64046;51.978;5.934;2023-09-18T07:50:44;100217.59;;;24.97;100.00
75359;BME280;64046;51.978;5.934;2023-09-18T07:53:18;100218.00;;;25.09;100.00
75359;BME280;64046;51.978;5.934;2023-09-18T07:55:55;100231.00;;;25.20;100.00
75359;BME280;64046;51.978;5.934;2023-09-18T07:58:25;100226.75;;;25.02;100.00
75359;BME280;64046;51.978;5.934;2023-09-18T08:01:00;100221.03;;;25.05;100.00
75359;BME280;64046;51.978;5.934;2023-09-18T08:03:35;100229.88;;;25.14;100.00
75359;BME280;64046;51.978;5.934;2023-09-18T08:06:05;100235.97;;;25.00;100.00
75359;BME280;64046;51.978;5.934;2023-09-18T08:08:34;100243.22;;;24.99;100.00
75359;BME280;64046;51.978;5.934;2023-09-18T08:11:10;100244.91;;;25.24;100.00
75359;BME280;64046;51.978;5.934;2023-09-18T08:13:47;100242.03;;;25.02;100.00
75359;BME280;64046;51.978;5.934;2023-09-18T08:16:22;100229.75;;;25.08;100.00
75359;BME280;64046;51.978;5.934;2023-09-18T08:18:58;100233.97;;;25.33;100.00
75359;BME280;64046;51.978;5.934;2023-09-18T08:21:28;100234.41;;;25.14;100.00
75359;BME280;64046;51.978;5.934;2023-09-18T08:24:05;100233.06;;;25.41;100.00
75359;BME280;64046;51.978;5.934;2023-09-18T08:26:35;100229.88;;;25.14;100.00
75359;BME280;64046;51.978;5.934;2023-09-18T08:29:06;100242.09;;;25.17;100.00
75359;BME280;64046;51.978;5.934;2023-09-18T08:31:37;100238.47;;;25.33;100.00
75359;BME280;64046;51.978;5.934;2023-09-18T08:34:13;100236.38;;;25.43;100.00
75359;BME280;64046;51.978;5.934;2023-09-18T08:36:50;100230.00;;;25.44;100.00
75359;BME280;64046;51.978;5.934;2023-09-18T08:39:20;100233.00;;;25.26;100.00
75359;BME280;64046;51.978;5.934;2023-09-18T08:41:53;100231.19;;;25.42;100.00
75359;BME280;64046;51.978;5.934;2023-09-18T08:44:28;100237.41;;;25.42;100.00
75359;BME280;64046;51.978;5.934;2023-09-18T08:46:59;100235.50;;;25.51;100.00
75359;BME280;64046;51.978;5.934;2023-09-18T08:49:34;100249.25;;;25.71;100.00
75359;BME280;64046;51.978;5.934;2023-09-18T08:52:05;100263.91;;;25.60;100.00
75359;BME280;64046;51.978;5.934;2023-09-18T08:54:41;100273.28;;;25.64;100.00
75359;BME280;64046;51.978;5.934;2023-09-18T08:57:11;100264.34;;;25.49;100.00
75359;BME280;64046;51.978;5.934;2023-09-18T08:59:43;100256.19;;;25.65;100.00
75359;BME280;64046;51.978;5.934;2023-09-18T09:02:14;100262.34;;;25.51;100.00
75359;BME280;64046;51.978;5.934;2023-09-18T09:04:46;100265.81;;;25.74;100.00
75359;BME280;64046;51.978;5.934;2023-09-18T09:07:17;100260.88;;;25.63;100.00
75359;BME280;64046;51.978;5.934;2023-09-18T09:09:46;100275.59;;;25.67;100.00
75359;BME280;64046;51.978;5.934;2023-09-18T09:12:54;100280.88;;;25.99;100.00
75359;BME280;64046;51.978;5.934;2023-09-18T09:15:27;100281.31;;;25.87;100.00
75359;BME280;64046;51.978;5.934;2023-09-18T09:18:06;100270.50;;;25.96;100.00
75359;BME280;64046;51.978;5.934;2023-09-18T09:20:52;100276.34;;;25.99;100.00
75359;BME280;64046;51.978;5.934;2023-09-18T09:23:25;100281.03;;;25.82;100.00
75359;BME280;64046;51.978;5.934;2023-09-18T09:26:12;100284.69;;;26.04;100.00
75359;BME280;64046;51.978;5.934;2023-09-18T09:28:44;100275.47;;;25.84;100.00
75359;BME280;64046;51.978;5.934;2023-09-18T09:31:26;100280.38;;;26.03;99.56
75359;BME280;64046;51.978;5.934;2023-09-18T09:33:55;100270.28;;;25.82;100.00
75359;BME280;64046;51.978;5.934;2023-09-18T09:36:30;100268.72;;;26.11;98.76
75359;BME280;64046;51.978;5.934;2023-09-18T09:39:04;100265.53;;;26.07;98.64
75359;BME280;64046;51.978;5.934;2023-09-18T09:41:45;100269.75;;;26.25;97.23
75359;BME280;64046;51.978;5.934;2023-09-18T09:44:18;100271.66;;;26.16;97.29
75359;BME280;64046;51.978;5.934;2023-09-18T09:46:48;100276.56;;;26.28;96.64
75359;BME280;64046;51.978;5.934;2023-09-18T09:49:19;100277.69;;;26.33;96.29
75359;BME280;64046;51.978;5.934;2023-09-18T09:51:59;100272.97;;;26.65;94.48
75359;BME280;64046;51.978;5.934;2023-09-18T09:54:35;100280.13;;;26.73;93.23
75359;BME280;64046;51.978;5.934;2023-09-18T09:57:09;100281.31;;;26.70;93.37
75359;BME280;64046;51.978;5.934;2023-09-18T09:59:42;100284.09;;;26.77;93.34
75359;BME280;64046;51.978;5.934;2023-09-18T10:02:14;100277.72;;;26.78;92.89
75359;BME280;64046;51.978;5.934;2023-09-18T10:04:54;100277.28;;;26.96;90.06
75359;BME280;64046;51.978;5.934;2023-09-18T10:07:28;100266.09;;;26.92;90.36
75359;BME280;64046;51.978;5.934;2023-09-18T10:10:01;100269.03;;;26.98;90.61
75359;BME280;64046;51.978;5.934;2023-09-18T10:12:35;100260.44;;;27.02;90.16
75359;BME280;64046;51.978;5.934;2023-09-18T10:15:06;100279.69;;;27.06;89.52
75359;BME280;64046;51.978;5.934;2023-09-18T10:17:43;100290.59;;;27.19;87.36
75359;BME280;64046;51.978;5.934;2023-09-18T10:20:24;100303.53;;;27.31;86.53
75359;BME280;64046;51.978;5.934;2023-09-18T10:23:00;100307.09;;;27.31;85.60
75359;BME280;64046;51.978;5.934;2023-09-18T10:25:32;100300.72;;;27.17;85.58
75359;BME280;64046;51.978;5.934;2023-09-18T10:28:02;100313.81;;;27.05;84.84
75359;BME280;64046;51.978;5.934;2023-09-18T10:30:39;100311.34;;;27.04;84.72
75359;BME280;64046;51.978;5.934;2023-09-18T10:33:11;100321.47;;;26.87;85.13
75359;BME280;64046;51.978;5.934;2023-09-18T10:35:43;100326.66;;;26.88;85.32
75359;BME280;64046;51.978;5.934;2023-09-18T10:38:20;100323.28;;;27.01;84.41
75359;BME280;64046;51.978;5.934;2023-09-18T10:40:54;100323.88;;;26.82;84.50
75359;BME280;64046;51.978;5.934;2023-09-18T10:43:25;100323.38;;;26.93;83.43
75359;BME280;64046;51.978;5.934;2023-09-18T10:45:56;100316.81;;;26.96;83.10
75359;BME280;64046;51.978;5.934;2023-09-18T10:48:30;100323.19;;;26.94;82.24
75359;BME280;64046;51.978;5.934;2023-09-18T10:51:07;100326.69;;;27.10;80.94
75359;BME280;64046;51.978;5.934;2023-09-18T10:53:41;100332.28;;;27.08;79.97
75359;BME280;64046;51.978;5.934;2023-09-18T10:56:10;100323.66;;;26.83;80.69
75359;BME280;64046;51.978;5.934;2023-09-18T10:58:45;100325.16;;;26.86;80.76
75359;BME280;64046;51.978;5.934;2023-09-18T11:01:19;100322.19;;;26.96;80.17
75359;BME280;64046;51.978;5.934;2023-09-18T11:04:00;100323.66;;;26.98;79.60
75359;BME280;64046;51.978;5.934;2023-09-18T11:07:04;100314.66;;;27.06;78.39
75359;BME280;64046;51.978;5.934;2023-09-18T11:09:46;100316.81;;;26.96;78.78
75359;BME280;64046;51.978;5.934;2023-09-18T11:12:17;100308.50;;;26.75;79.80
75359;BME280;64046;51.978;5.934;2023-09-18T11:14:49;100311.91;;;26.84;79.68
75359;BME280;64046;51.978;5.934;2023-09-18T11:17:32;100308.41;;;27.20;77.99
75359;BME280;64046;51.978;5.934;2023-09-18T11:20:17;100302.81;;;27.37;76.06
75359;BME280;64046;51.978;5.934;2023-09-18T11:22:56;100299.38;;;27.28;77.37
75359;BME280;64046;51.978;5.934;2023-09-18T11:25:50;100305.94;;;27.40;76.96
75359;BME280;64046;51.978;5.934;2023-09-18T11:28:25;100299.38;;;27.28;77.90
75359;BME280;64046;51.978;5.934;2023-09-18T11:31:00;100297.34;;;27.30;77.32
75359;BME280;64046;51.978;5.934;2023-09-18T11:33:36;100300.66;;;27.47;76.93
75359;BME280;64046;51.978;5.934;2023-09-18T11:36:12;100299.94;;;27.38;75.92
75359;BME280;64046;51.978;5.934;2023-09-18T11:38:52;100307.16;;;27.38;74.94
75359;BME280;64046;51.978;5.934;2023-09-18T11:41:41;100312.69;;;27.15;76.93
75359;BME280;64046;51.978;5.934;2023-09-18T11:44:33;100319.13;;;26.99;78.76
75359;BME280;64046;51.978;5.934;2023-09-18T11:47:10;100303.38;;;26.66;80.55
75359;BME280;64046;51.978;5.934;2023-09-18T11:49:51;100311.34;;;26.44;81.66
75359;BME280;64046;51.978;5.934;2023-09-18T11:52:27;100319.97;;;26.39;81.95
75359;BME280;64046;51.978;5.934;2023-09-18T11:55:00;100329.78;;;26.32;83.34
75359;BME280;64046;51.978;5.934;2023-09-18T11:57:40;100314.59;;;26.39;84.14
75359;BME280;64046;51.978;5.934;2023-09-18T12:00:21;100314.75;;;26.53;84.52
75359;BME280;64046;51.978;5.934;2023-09-18T12:02:56;100316.53;;;26.46;85.15
75359;BME280;64046;51.978;5.934;2023-09-18T12:05:27;100305.41;;;26.34;86.34
75359;BME280;64046;51.978;5.934;2023-09-18T12:07:59;100309.28;;;26.46;86.75
75359;BME280;64046;51.978;5.934;2023-09-18T12:10:38;100300.56;;;26.59;87.02
75359;BME280;64046;51.978;5.934;2023-09-18T12:13:12;100294.97;;;26.84;86.16
75359;BME280;64046;51.978;5.934;2023-09-18T12:15:45;100302.63;;;26.87;86.21
75359;BME280;64046;51.978;5.934;2023-09-18T12:18:18;100309.31;;;26.76;84.64
75359;BME280;64046;51.978;5.934;2023-09-18T12:20:49;100302.81;;;26.85;81.66
75359;BME280;64046;51.978;5.934;2023-09-18T12:23:43;100311.19;;;27.12;79.55
75359;BME280;64046;51.978;5.934;2023-09-18T12:26:14;100311.69;;;27.01;79.73
75359;BME280;64046;51.978;5.934;2023-09-18T12:28:47;100297.56;;;27.14;78.63
75359;BME280;64046;51.978;5.934;2023-09-18T12:31:20;100302.31;;;27.11;78.30
75359;BME280;64046;51.978;5.934;2023-09-18T12:33:54;100308.88;;;27.09;78.38
75359;BME280;64046;51.978;5.934;2023-09-18T12:36:30;100305.91;;;27.19;77.15
75359;BME280;64046;51.978;5.934;2023-09-18T12:38:59;100291.66;;;27.03;76.84
75359;BME280;64046;51.978;5.934;2023-09-18T12:41:37;100287.97;;;27.26;74.29
75359;BME280;64046;51.978;5.934;2023-09-18T12:44:13;100291.63;;;27.18;74.83
75359;BME280;64046;51.978;5.934;2023-09-18T12:46:44;100283.84;;;27.08;74.57
75359;BME280;64046;51.978;5.934;2023-09-18T12:49:20;100292.72;;;27.24;72.68
75359;BME280;64046;51.978;5.934;2023-09-18T12:51:55;100289.56;;;27.35;72.03
75359;BME280;64046;51.978;5.934;2023-09-18T12:54:43;100285.53;;;27.46;72.02
75359;BME280;64046;51.978;5.934;2023-09-18T12:57:20;100272.72;;;27.33;72.87
75359;BME280;64046;51.978;5.934;2023-09-18T12:59:54;100264.44;;;27.50;71.92
75359;BME280;64046;51.978;5.934;2023-09-18T13:02:27;100266.25;;;27.42;70.98
75359;BME280;64046;51.978;5.934;2023-09-18T13:05:01;100268.88;;;27.36;70.72
75359;BME280;64046;51.978;5.934;2023-09-18T13:07:31;100266.25;;;27.42;69.05
75359;BME280;64046;51.978;5.934;2023-09-18T13:10:10;100260.19;;;27.62;68.62
75359;BME280;64046;51.978;5.934;2023-09-18T13:12:43;100260.28;;;27.47;68.88
75359;BME280;64046;51.978;5.934;2023-09-18T13:15:27;100256.75;;;27.68;67.30
75359;BME280;64046;51.978;5.934;2023-09-18T13:17:59;100253.34;;;27.59;67.31
75359;BME280;64046;51.978;5.934;2023-09-18T13:20:30;100262.00;;;27.55;65.68